createdAt,value
2019-05-25T00:03:02.517Z,90.20
2019-05-25T00:07:38.288Z,91.20
2019-05-25T00:12:14.041Z,91.10
2019-05-25T00:16:49.815Z,91.60
2019-05-25T00:21:25.560Z,92.30
2019-05-25T00:26:01.370Z,91.70
2019-05-25T00:30:37.126Z,91.40
2019-05-25T00:35:13.200Z,91.50
2019-05-25T00:39:48.949Z,90.30
2019-05-25T00:44:24.708Z,90.20
2019-05-25T00:49:00.549Z,89.60
2019-05-25T00:53:36.312Z,88.20
2019-05-25T00:58:12.114Z,87.10
2019-05-25T01:02:47.915Z,88.40
2019-05-25T01:07:23.760Z,87.90
2019-05-25T01:11:59.549Z,87.50
2019-05-25T01:16:35.308Z,88.90
2019-05-25T01:21:11.081Z,88.70
2019-05-25T01:25:46.898Z,89.10
2019-05-25T01:30:22.813Z,89.10
2019-05-25T01:34:58.556Z,90.20
2019-05-25T01:39:34.326Z,90.00
2019-05-25T01:44:10.064Z,89.90
2019-05-25T01:48:45.842Z,90.10
2019-05-25T01:53:21.713Z,89.10
2019-05-25T01:57:57.486Z,89.30
2019-05-25T02:02:33.243Z,90.20
2019-05-25T02:07:09.062Z,90.20
2019-05-25T02:11:44.805Z,90.20
2019-05-25T02:16:20.575Z,90.40
2019-05-25T02:20:56.331Z,90.40
2019-05-25T02:25:32.111Z,90.40
2019-05-25T02:30:08.290Z,90.70
2019-05-25T02:34:44.145Z,90.30
2019-05-25T02:39:19.955Z,90.40
2019-05-25T02:43:55.780Z,90.60
2019-05-25T02:48:31.533Z,90.30
2019-05-25T02:53:07.312Z,90.90
2019-05-25T02:57:43.073Z,90.70
2019-05-25T03:02:18.848Z,90.30
2019-05-25T03:06:54.896Z,90.20
2019-05-25T03:11:32.168Z,90.30
2019-05-25T03:16:07.915Z,90.50
2019-05-25T03:20:43.689Z,91.30
2019-05-25T03:25:19.442Z,90.90
2019-05-25T03:29:55.233Z,91.20
2019-05-25T03:34:30.990Z,91.00
2019-05-25T03:39:07.886Z,91.10
2019-05-25T03:43:43.648Z,91.20
2019-05-25T03:48:19.409Z,91.40
2019-05-25T03:52:55.170Z,91.40
2019-05-25T03:57:30.939Z,91.80
2019-05-25T04:02:06.688Z,91.70
2019-05-25T04:06:42.454Z,92.40
2019-05-25T04:11:18.200Z,92.20
2019-05-25T04:15:53.968Z,92.50
2019-05-25T04:20:29.724Z,93.00
2019-05-25T04:25:05.646Z,92.40
2019-05-25T04:29:41.446Z,92.30
2019-05-25T04:34:17.219Z,93.00
2019-05-25T04:38:52.995Z,92.30
2019-05-25T04:43:28.837Z,91.80
2019-05-25T04:48:04.680Z,92.00
2019-05-25T04:52:41.543Z,92.10
2019-05-25T04:57:17.629Z,92.10
2019-05-25T05:01:53.429Z,92.50
2019-05-25T05:06:29.173Z,91.80
2019-05-25T05:11:04.969Z,92.30
2019-05-25T05:15:40.712Z,91.50
2019-05-25T05:20:16.676Z,91.70
2019-05-25T05:24:52.436Z,91.30
2019-05-25T05:29:28.217Z,91.20
2019-05-25T05:34:04.268Z,91.00
2019-05-25T05:38:41.251Z,91.20
2019-05-25T05:43:18.380Z,90.90
2019-05-25T05:47:55.430Z,91.20
2019-05-25T05:52:34.524Z,90.30
2019-05-25T05:57:12.698Z,90.90
2019-05-25T06:01:47.724Z,90.90
2019-05-25T06:06:23.516Z,91.70
2019-05-25T06:10:59.265Z,91.20
2019-05-25T06:15:35.049Z,91.10
2019-05-25T06:20:11.088Z,89.50
2019-05-25T06:24:46.885Z,89.40
2019-05-25T06:29:22.631Z,87.90
2019-05-25T06:33:58.413Z,87.80
2019-05-25T06:38:34.171Z,87.00
2019-05-25T06:43:09.944Z,89.00
2019-05-25T06:47:45.708Z,89.00
2019-05-25T06:52:21.586Z,88.00
2019-05-25T06:56:57.416Z,88.10
2019-05-25T07:01:33.257Z,88.50
2019-05-25T07:06:09.017Z,88.00
2019-05-25T07:10:44.861Z,87.30
2019-05-25T07:15:21.185Z,87.00
2019-05-25T07:19:56.969Z,87.90
2019-05-25T07:24:32.720Z,86.80
2019-05-25T07:29:08.489Z,86.20
2019-05-25T07:33:44.271Z,87.60
2019-05-25T07:38:20.104Z,85.90
2019-05-25T07:42:55.857Z,84.50
2019-05-25T07:47:31.623Z,84.00
2019-05-25T07:52:07.379Z,83.50
2019-05-25T07:56:43.198Z,83.50
2019-05-25T08:01:18.949Z,84.10
2019-05-25T08:05:54.718Z,84.90
2019-05-25T08:10:30.466Z,83.50
2019-05-25T08:15:07.640Z,84.00
2019-05-25T08:19:43.393Z,87.90
2019-05-25T08:24:19.166Z,87.40
2019-05-25T08:28:54.920Z,85.60
2019-05-25T08:33:30.685Z,85.00
2019-05-25T08:38:06.437Z,86.00
2019-05-25T08:42:42.217Z,85.50
2019-05-25T08:47:17.966Z,85.30
2019-05-25T08:51:54.995Z,84.70
2019-05-25T08:56:30.956Z,85.60
2019-05-25T09:01:06.749Z,86.80
2019-05-25T09:05:42.501Z,85.70
2019-05-25T09:10:18.369Z,85.60
2019-05-25T09:14:54.150Z,83.30
2019-05-25T09:19:29.980Z,81.90
2019-05-25T09:24:05.770Z,80.40
2019-05-25T09:28:41.586Z,80.20
2019-05-25T09:33:17.328Z,79.80
2019-05-25T09:37:53.138Z,82.50
2019-05-25T09:42:28.901Z,81.00
2019-05-25T09:47:04.705Z,81.20
2019-05-25T09:51:40.460Z,81.40
2019-05-25T09:56:16.217Z,81.80
2019-05-25T10:00:51.965Z,84.10
2019-05-25T10:05:27.770Z,82.80
2019-05-25T10:10:03.556Z,83.70
2019-05-25T10:14:39.418Z,81.30
2019-05-25T10:19:15.174Z,81.70
2019-05-25T10:23:50.978Z,83.10
2019-05-25T10:28:26.768Z,83.20
2019-05-25T10:33:02.535Z,82.70
2019-05-25T10:37:38.286Z,82.40
2019-05-25T10:42:14.140Z,77.20
2019-05-25T10:46:49.906Z,77.20
2019-05-25T10:51:25.680Z,75.60
2019-05-25T10:56:01.441Z,74.40
2019-05-25T11:00:37.219Z,73.20
2019-05-25T11:05:14.550Z,72.20
2019-05-25T11:09:50.353Z,72.10
2019-05-25T11:14:26.119Z,72.60
2019-05-25T11:19:01.897Z,73.30
2019-05-25T11:23:37.710Z,74.00
2019-05-25T11:28:13.494Z,72.40
2019-05-25T11:32:49.274Z,74.30
2019-05-25T11:37:25.049Z,72.20
2019-05-25T11:42:00.810Z,72.40
2019-05-25T11:46:36.570Z,69.50
2019-05-25T11:51:12.336Z,69.00
2019-05-25T11:55:48.156Z,69.60
2019-05-25T12:00:25.880Z,67.90
2019-05-25T12:05:01.683Z,69.60
2019-05-25T12:09:37.532Z,71.10
2019-05-25T12:14:13.342Z,69.70
2019-05-25T12:18:49.088Z,69.50
2019-05-25T12:23:24.857Z,69.30
2019-05-25T12:28:00.607Z,68.90
2019-05-25T12:32:36.374Z,67.60
2019-05-25T12:37:12.128Z,69.50
2019-05-25T12:41:47.897Z,69.90
2019-05-25T12:46:23.667Z,68.30
2019-05-25T12:50:59.440Z,67.10
2019-05-25T12:55:35.195Z,65.30
2019-05-25T13:00:15.512Z,67.00
2019-05-25T13:04:48.697Z,67.30
2019-05-25T13:09:24.474Z,66.90
2019-05-25T13:14:13.701Z,65.90
2019-05-25T13:18:37.703Z,64.50
2019-05-25T13:23:13.453Z,65.80
2019-05-25T13:27:49.311Z,66.30
2019-05-25T13:32:25.053Z,66.30
2019-05-25T13:37:01.917Z,68.60
2019-05-25T13:41:37.981Z,69.70
2019-05-25T13:46:13.771Z,67.90
2019-05-25T13:50:49.509Z,69.30
2019-05-25T13:55:25.289Z,68.90
2019-05-25T14:00:01.048Z,69.00
2019-05-25T14:04:36.827Z,70.00
2019-05-25T14:09:15.659Z,71.10
2019-05-25T14:13:50.039Z,71.70
2019-05-25T14:18:25.802Z,71.00
2019-05-25T14:23:01.604Z,73.20
2019-05-25T14:27:37.356Z,73.70
2019-05-25T14:32:13.145Z,72.90
2019-05-25T14:36:48.963Z,75.40
2019-05-25T14:41:24.730Z,76.30
2019-05-25T14:46:00.491Z,79.20
2019-05-25T14:50:36.264Z,81.50
2019-05-25T14:55:12.119Z,86.10
2019-05-25T14:59:47.897Z,86.70
2019-05-25T15:04:23.660Z,88.60
2019-05-25T15:08:59.492Z,88.60
2019-05-25T15:13:35.258Z,90.80
2019-05-25T15:18:11.008Z,93.30
2019-05-25T15:22:47.278Z,97.20
2019-05-25T15:27:23.186Z,98.80
2019-05-25T15:31:58.937Z,99.70
2019-05-25T15:36:34.718Z,99.90
2019-05-25T15:41:10.469Z,99.90
2019-05-25T15:45:46.249Z,99.90
2019-05-25T15:50:22.305Z,99.20
2019-05-25T15:54:58.095Z,96.80
2019-05-25T15:59:33.842Z,95.80
2019-05-25T16:04:09.620Z,94.60
2019-05-25T16:08:45.477Z,94.90
2019-05-25T16:13:21.300Z,93.80
2019-05-25T16:17:57.101Z,92.10
2019-05-25T16:22:32.878Z,92.90
2019-05-25T16:27:08.622Z,94.10
2019-05-25T16:31:44.416Z,93.20
2019-05-25T16:36:20.162Z,93.30
2019-05-25T16:40:55.934Z,93.00
2019-05-25T16:45:31.680Z,93.10
2019-05-25T16:50:09.447Z,92.70
2019-05-25T16:54:45.205Z,93.30
2019-05-25T16:59:20.989Z,93.50
2019-05-25T17:03:56.733Z,92.80
2019-05-25T17:08:32.505Z,93.00
2019-05-25T17:13:08.257Z,93.30
2019-05-25T17:17:44.031Z,92.90
2019-05-25T17:22:19.781Z,92.90
2019-05-25T17:26:55.548Z,93.40
2019-05-25T17:31:31.301Z,93.40
2019-05-25T17:36:07.108Z,92.90
2019-05-25T17:40:42.850Z,93.80
2019-05-25T17:45:18.628Z,93.20
2019-05-25T17:49:54.373Z,92.80
2019-05-25T17:54:30.225Z,93.40
2019-05-25T17:59:05.993Z,93.10
2019-05-25T18:03:41.858Z,93.70
2019-05-25T18:08:17.711Z,94.10
2019-05-25T18:12:53.559Z,94.30
2019-05-25T18:17:29.381Z,94.00
2019-05-25T18:22:05.149Z,94.10
2019-05-25T18:26:40.902Z,94.10
2019-05-25T18:31:16.669Z,94.20
2019-05-25T18:35:52.422Z,94.30
2019-05-25T18:40:28.221Z,94.60
2019-05-25T18:45:04.049Z,94.60
2019-05-25T18:49:39.821Z,95.40
2019-05-25T18:54:15.573Z,96.00
2019-05-25T18:58:51.340Z,96.80
2019-05-25T19:03:27.089Z,97.60
2019-05-25T19:08:02.867Z,98.50
2019-05-25T19:12:38.610Z,99.50
2019-05-25T19:17:14.453Z,98.80
2019-05-25T19:21:50.196Z,99.50
2019-05-25T19:26:25.964Z,99.90
2019-05-25T19:31:01.750Z,99.80
2019-05-25T19:35:37.640Z,99.70
2019-05-25T19:40:13.497Z,99.70
2019-05-25T19:44:49.308Z,99.70
2019-05-25T19:49:25.057Z,99.90
2019-05-25T19:54:00.840Z,99.70
2019-05-25T19:58:36.590Z,98.80
2019-05-25T20:03:12.365Z,99.90
2019-05-25T20:07:48.117Z,99.70
2019-05-25T20:12:23.916Z,99.40
2019-05-25T20:16:59.671Z,99.40
2019-05-25T20:21:35.633Z,99.10
2019-05-25T20:26:11.743Z,99.60
2019-05-25T20:30:47.577Z,99.20
2019-05-25T20:35:32.439Z,99.20
2019-05-25T20:40:00.844Z,99.40
2019-05-25T20:44:36.590Z,99.30
2019-05-25T20:49:12.394Z,99.60
2019-05-25T20:53:48.149Z,99.40
2019-05-25T20:58:23.927Z,99.00
2019-05-25T21:03:06.010Z,99.50
2019-05-25T21:07:37.214Z,99.90
2019-05-25T21:12:12.969Z,99.90
2019-05-25T21:16:49.577Z,99.90
2019-05-25T21:21:25.328Z,99.90
2019-05-25T21:26:01.171Z,99.90
2019-05-25T21:30:36.934Z,99.90
2019-05-25T21:35:12.800Z,99.90
2019-05-25T21:39:48.558Z,99.90
2019-05-25T21:44:24.529Z,99.90
2019-05-25T21:49:00.273Z,99.90
2019-05-25T21:53:36.096Z,99.90
2019-05-25T21:58:11.841Z,99.90
2019-05-25T22:02:47.612Z,99.90
2019-05-25T22:07:23.381Z,99.90
2019-05-25T22:11:59.233Z,99.90
2019-05-25T22:16:34.989Z,99.90
2019-05-25T22:21:10.758Z,99.90
2019-05-25T22:25:46.509Z,99.90
2019-05-25T22:30:22.291Z,99.90
2019-05-25T22:34:58.046Z,99.90
2019-05-25T22:39:33.893Z,99.90
2019-05-25T22:44:09.640Z,99.90
2019-05-25T22:48:45.407Z,99.90
2019-05-25T22:53:21.178Z,99.90
2019-05-25T22:57:57.004Z,99.90
2019-05-25T23:02:32.756Z,99.90
2019-05-25T23:07:08.550Z,99.90
2019-05-25T23:11:44.325Z,99.90
2019-05-25T23:16:20.134Z,99.90
2019-05-25T23:20:55.897Z,99.90
2019-05-25T23:25:31.689Z,99.90
2019-05-25T23:30:08.460Z,99.90
2019-05-25T23:34:44.249Z,99.90
2019-05-25T23:39:20.010Z,99.90
2019-05-25T23:43:59.529Z,99.90
2019-05-25T23:48:33.250Z,99.90
2019-05-25T23:53:09.045Z,99.90
2019-05-25T23:57:44.798Z,99.90
